Airfield :







YOU CAN JOIN US ON...

 
LOGIN :

Register | Disclaimer

   EN    FR    IT 

 









Legend :    VFR   Marginal VFR   IFR   Intensive IFR   Very Intensive IFR
Visi :
Ceiling :
>= 8 km
>= 3000ft
5 to 8 km
1000 to 3000 ft
1500m to 5 km
500 to 1000 ft
800 to 1500m
200 to 500 ft
< 800m
< 200 ft
Symbols :   Thunderstorms  Fog  Heavy snow  Heavy precipitations  Wind > 20 kt






- Airport Elevation : 9 ft
- IATA code : SJU


TJSJ - Luis Munoz Marin Int.

CURRENT METAR :
  • 171856Z 08016G24KT 10SM SCT029 SCT050 31/23 A3001 RMK AO2 SLP160 VCSH NE T03110233

EXPIRED METARs :
  • 171756Z 06015G25KT 10SM FEW029 SCT037 32/24 A3002 RMK AO2 SLP166 VCSH N SE-SW 60003 T03220244 10322 20272 58019
  • 171656Z 06016KT 10SM FEW026 SCT034 SCT055 32/23 A3005 RMK AO2 SLP174 VCSH SE-SW T03170233

TAF TJSJ
Valid from the 17 at 18:00 until the 18 at 18:00 UTC


171735Z 1718/1818 06016KT P6SM VCSH FEW026 SCT035 SCT060
FM172300 09008KT P6SM SCT030
FM180200 12004KT P6SM VCSH FEW024
FM181330 05013G18KT P6SM SCT024 SCT030
TJZS FIR / North America



MET'MAP, your aeronautical weather chart ! - Copyright ORBIFLY December 2007 - Disclaimer

ORBIFLY MET'MAP TEAM :

Programming & Development : Alexandra Zaïnal
Concept & original design : Baudouin d'Aumeries
Assistance for programming : Marc-Olivier Méhu
Technical & hardware support : Manuel Goepfert

Contact : metmap@orbifly.com




SOURCES & CREDITS :

   NOAA